sensor_id;sensor_type;location;lat;lon;timestamp;temperature;humidity
6758;DHT22;3416;53.074;8.822;2022-08-01T00:01:31;19.80;99.90
6758;DHT22;3416;53.074;8.822;2022-08-01T00:03:59;19.80;99.90
6758;DHT22;3416;53.074;8.822;2022-08-01T00:06:26;19.80;99.90
6758;DHT22;3416;53.074;8.822;2022-08-01T00:08:53;19.80;99.90
6758;DHT22;3416;53.074;8.822;2022-08-01T00:11:22;19.80;99.90
6758;DHT22;3416;53.074;8.822;2022-08-01T00:13:54;19.80;99.90
6758;DHT22;3416;53.074;8.822;2022-08-01T00:16:21;19.80;99.90
6758;DHT22;3416;53.074;8.822;2022-08-01T00:18:49;19.80;99.90
6758;DHT22;3416;53.074;8.822;2022-08-01T00:21:17;19.80;99.90
6758;DHT22;3416;53.074;8.822;2022-08-01T00:23:44;19.80;99.90
6758;DHT22;3416;53.074;8.822;2022-08-01T00:26:12;19.80;99.90
6758;DHT22;3416;53.074;8.822;2022-08-01T00:28:39;19.80;99.90
6758;DHT22;3416;53.074;8.822;2022-08-01T00:31:06;19.80;99.90
6758;DHT22;3416;53.074;8.822;2022-08-01T00:33:33;19.80;99.90
6758;DHT22;3416;53.074;8.822;2022-08-01T00:36:00;19.70;99.90
6758;DHT22;3416;53.074;8.822;2022-08-01T00:38:28;19.80;99.90
6758;DHT22;3416;53.074;8.822;2022-08-01T00:40:55;19.80;99.90
6758;DHT22;3416;53.074;8.822;2022-08-01T00:43:22;19.70;99.90
6758;DHT22;3416;53.074;8.822;2022-08-01T00:45:48;19.80;99.90
6758;DHT22;3416;53.074;8.822;2022-08-01T00:48:15;19.80;99.90
6758;DHT22;3416;53.074;8.822;2022-08-01T00:50:42;19.70;99.90
6758;DHT22;3416;53.074;8.822;2022-08-01T00:53:10;19.70;99.90
6758;DHT22;3416;53.074;8.822;2022-08-01T00:55:38;19.70;99.90
6758;DHT22;3416;53.074;8.822;2022-08-01T00:58:05;19.70;99.90
6758;DHT22;3416;53.074;8.822;2022-08-01T01:00:34;19.70;99.90
6758;DHT22;3416;53.074;8.822;2022-08-01T01:03:01;19.70;99.90
6758;DHT22;3416;53.074;8.822;2022-08-01T01:05:29;19.70;99.90
6758;DHT22;3416;53.074;8.822;2022-08-01T01:08:02;19.70;99.90
6758;DHT22;3416;53.074;8.822;2022-08-01T01:10:34;19.70;99.90
6758;DHT22;3416;53.074;8.822;2022-08-01T01:13:09;19.70;99.90
6758;DHT22;3416;53.074;8.822;2022-08-01T01:15:41;19.70;99.90
6758;DHT22;3416;53.074;8.822;2022-08-01T01:18:14;19.60;99.90
6758;DHT22;3416;53.074;8.822;2022-08-01T01:20:57;19.60;99.90
6758;DHT22;3416;53.074;8.822;2022-08-01T01:26:27;19.60;99.90
6758;DHT22;3416;53.074;8.822;2022-08-01T01:29:05;19.60;99.90
6758;DHT22;3416;53.074;8.822;2022-08-01T01:31:38;19.60;99.90
6758;DHT22;3416;53.074;8.822;2022-08-01T01:34:08;19.60;99.90
6758;DHT22;3416;53.074;8.822;2022-08-01T01:36:37;19.60;99.90
6758;DHT22;3416;53.074;8.822;2022-08-01T01:39:04;19.60;99.90
6758;DHT22;3416;53.074;8.822;2022-08-01T01:41:33;19.50;99.90
6758;DHT22;3416;53.074;8.822;2022-08-01T01:44:04;19.50;99.90
6758;DHT22;3416;53.074;8.822;2022-08-01T01:46:32;19.50;99.90
6758;DHT22;3416;53.074;8.822;2022-08-01T01:49:00;19.50;99.90
6758;DHT22;3416;53.074;8.822;2022-08-01T01:51:28;19.50;99.90
6758;DHT22;3416;53.074;8.822;2022-08-01T01:53:57;19.40;99.90
6758;DHT22;3416;53.074;8.822;2022-08-01T01:56:26;19.40;99.90
6758;DHT22;3416;53.074;8.822;2022-08-01T01:58:56;19.50;99.90
6758;DHT22;3416;53.074;8.822;2022-08-01T02:01:28;19.50;99.90
6758;DHT22;3416;53.074;8.822;2022-08-01T02:03:56;19.50;99.90
6758;DHT22;3416;53.074;8.822;2022-08-01T02:06:25;19.50;99.90
6758;DHT22;3416;53.074;8.822;2022-08-01T02:08:54;19.50;99.90
6758;DHT22;3416;53.074;8.822;2022-08-01T02:11:22;19.50;99.90
6758;DHT22;3416;53.074;8.822;2022-08-01T02:13:53;19.50;99.90
6758;DHT22;3416;53.074;8.822;2022-08-01T02:16:21;19.50;99.90
6758;DHT22;3416;53.074;8.822;2022-08-01T02:18:50;19.50;99.90
6758;DHT22;3416;53.074;8.822;2022-08-01T02:21:25;19.50;99.90
6758;DHT22;3416;53.074;8.822;2022-08-01T02:23:54;19.50;99.90
6758;DHT22;3416;53.074;8.822;2022-08-01T02:26:22;19.50;99.90
6758;DHT22;3416;53.074;8.822;2022-08-01T02:28:54;19.50;99.90
6758;DHT22;3416;53.074;8.822;2022-08-01T02:31:23;19.40;99.90
6758;DHT22;3416;53.074;8.822;2022-08-01T02:33:56;19.30;99.90
6758;DHT22;3416;53.074;8.822;2022-08-01T02:36:26;19.30;99.90
6758;DHT22;3416;53.074;8.822;2022-08-01T02:38:55;19.40;99.90
6758;DHT22;3416;53.074;8.822;2022-08-01T02:41:25;19.40;99.90
6758;DHT22;3416;53.074;8.822;2022-08-01T02:43:59;19.30;99.90
6758;DHT22;3416;53.074;8.822;2022-08-01T02:46:31;19.30;99.90
6758;DHT22;3416;53.074;8.822;2022-08-01T02:49:03;19.30;99.90
6758;DHT22;3416;53.074;8.822;2022-08-01T02:51:32;19.30;99.90
6758;DHT22;3416;53.074;8.822;2022-08-01T02:54:02;19.30;99.90
6758;DHT22;3416;53.074;8.822;2022-08-01T02:56:31;19.30;99.90
6758;DHT22;3416;53.074;8.822;2022-08-01T02:59:03;19.30;99.90
6758;DHT22;3416;53.074;8.822;2022-08-01T03:01:32;19.30;99.90
6758;DHT22;3416;53.074;8.822;2022-08-01T03:04:03;19.30;99.90
6758;DHT22;3416;53.074;8.822;2022-08-01T03:06:31;19.30;99.90
6758;DHT22;3416;53.074;8.822;2022-08-01T03:09:00;19.30;99.90
6758;DHT22;3416;53.074;8.822;2022-08-01T03:11:29;19.30;99.90
6758;DHT22;3416;53.074;8.822;2022-08-01T03:13:59;19.30;99.90
6758;DHT22;3416;53.074;8.822;2022-08-01T03:16:28;19.30;99.90
6758;DHT22;3416;53.074;8.822;2022-08-01T03:18:57;19.30;99.90
6758;DHT22;3416;53.074;8.822;2022-08-01T03:21:28;19.20;99.90
6758;DHT22;3416;53.074;8.822;2022-08-01T03:23:57;19.20;99.90
6758;DHT22;3416;53.074;8.822;2022-08-01T03:26:28;19.20;99.90
6758;DHT22;3416;53.074;8.822;2022-08-01T03:28:57;19.20;99.90
6758;DHT22;3416;53.074;8.822;2022-08-01T03:31:25;19.10;99.90
6758;DHT22;3416;53.074;8.822;2022-08-01T03:33:52;19.10;99.90
6758;DHT22;3416;53.074;8.822;2022-08-01T03:36:23;19.10;99.90
6758;DHT22;3416;53.074;8.822;2022-08-01T03:38:57;19.10;99.90
6758;DHT22;3416;53.074;8.822;2022-08-01T03:41:27;19.10;99.90
6758;DHT22;3416;53.074;8.822;2022-08-01T03:43:57;19.00;99.90
6758;DHT22;3416;53.074;8.822;2022-08-01T03:46:29;19.00;99.90
6758;DHT22;3416;53.074;8.822;2022-08-01T03:49:01;19.10;99.90
6758;DHT22;3416;53.074;8.822;2022-08-01T03:51:30;19.10;99.90
6758;DHT22;3416;53.074;8.822;2022-08-01T03:54:02;19.10;99.90
6758;DHT22;3416;53.074;8.822;2022-08-01T03:56:31;19.10;99.90
6758;DHT22;3416;53.074;8.822;2022-08-01T03:58:59;19.00;99.90
6758;DHT22;3416;53.074;8.822;2022-08-01T04:01:28;19.00;99.90
6758;DHT22;3416;53.074;8.822;2022-08-01T04:03:55;19.00;99.90
6758;DHT22;3416;53.074;8.822;2022-08-01T04:06:22;19.00;99.90
6758;DHT22;3416;53.074;8.822;2022-08-01T04:08:49;19.00;99.90
6758;DHT22;3416;53.074;8.822;2022-08-01T04:11:24;19.10;99.90
6758;DHT22;3416;53.074;8.822;2022-08-01T04:13:53;19.10;99.90
6758;DHT22;3416;53.074;8.822;2022-08-01T04:16:21;19.10;99.90
6758;DHT22;3416;53.074;8.822;2022-08-01T04:18:48;19.10;99.90
6758;DHT22;3416;53.074;8.822;2022-08-01T04:21:18;19.10;99.90
6758;DHT22;3416;53.074;8.822;2022-08-01T04:23:46;19.10;99.90
6758;DHT22;3416;53.074;8.822;2022-08-01T04:26:15;19.20;99.90
6758;DHT22;3416;53.074;8.822;2022-08-01T04:28:45;19.20;99.90
6758;DHT22;3416;53.074;8.822;2022-08-01T04:31:14;19.20;99.90
6758;DHT22;3416;53.074;8.822;2022-08-01T04:33:47;19.20;99.90
6758;DHT22;3416;53.074;8.822;2022-08-01T04:36:18;19.10;99.90
6758;DHT22;3416;53.074;8.822;2022-08-01T04:38:48;19.10;99.90
6758;DHT22;3416;53.074;8.822;2022-08-01T04:41:17;19.10;99.90
6758;DHT22;3416;53.074;8.822;2022-08-01T04:43:46;19.10;99.90
6758;DHT22;3416;53.074;8.822;2022-08-01T04:46:15;19.10;99.90
6758;DHT22;3416;53.074;8.822;2022-08-01T04:48:43;19.10;99.90
6758;DHT22;3416;53.074;8.822;2022-08-01T04:51:14;19.10;99.90
6758;DHT22;3416;53.074;8.822;2022-08-01T04:53:42;19.10;99.90
6758;DHT22;3416;53.074;8.822;2022-08-01T04:56:09;19.00;99.90
6758;DHT22;3416;53.074;8.822;2022-08-01T04:58:38;18.90;99.90
6758;DHT22;3416;53.074;8.822;2022-08-01T05:01:07;19.00;99.90
6758;DHT22;3416;53.074;8.822;2022-08-01T05:03:34;19.00;99.90
6758;DHT22;3416;53.074;8.822;2022-08-01T05:06:01;19.00;99.90
6758;DHT22;3416;53.074;8.822;2022-08-01T05:08:28;19.00;99.90
6758;DHT22;3416;53.074;8.822;2022-08-01T05:10:55;19.00;99.90
6758;DHT22;3416;53.074;8.822;2022-08-01T05:13:22;19.00;99.90
6758;DHT22;3416;53.074;8.822;2022-08-01T05:15:49;19.00;99.90
6758;DHT22;3416;53.074;8.822;2022-08-01T05:18:17;19.00;99.90
6758;DHT22;3416;53.074;8.822;2022-08-01T05:20:44;19.00;99.90
6758;DHT22;3416;53.074;8.822;2022-08-01T05:23:11;19.00;99.90
6758;DHT22;3416;53.074;8.822;2022-08-01T05:25:38;19.00;99.90
6758;DHT22;3416;53.074;8.822;2022-08-01T05:28:05;18.90;99.90
6758;DHT22;3416;53.074;8.822;2022-08-01T05:30:32;19.00;99.90
6758;DHT22;3416;53.074;8.822;2022-08-01T05:32:59;19.00;99.90
6758;DHT22;3416;53.074;8.822;2022-08-01T05:35:27;19.00;99.90
6758;DHT22;3416;53.074;8.822;2022-08-01T05:37:54;19.00;99.90
6758;DHT22;3416;53.074;8.822;2022-08-01T05:40:21;19.10;99.90
6758;DHT22;3416;53.074;8.822;2022-08-01T05:42:48;19.00;99.90
6758;DHT22;3416;53.074;8.822;2022-08-01T05:45:15;19.00;99.90
6758;DHT22;3416;53.074;8.822;2022-08-01T05:47:41;18.80;99.90
6758;DHT22;3416;53.074;8.822;2022-08-01T05:50:09;18.80;99.90
6758;DHT22;3416;53.074;8.822;2022-08-01T05:52:37;18.70;99.90
6758;DHT22;3416;53.074;8.822;2022-08-01T05:55:05;18.80;99.90
6758;DHT22;3416;53.074;8.822;2022-08-01T05:57:33;18.70;99.90
6758;DHT22;3416;53.074;8.822;2022-08-01T06:00:00;18.80;99.90
6758;DHT22;3416;53.074;8.822;2022-08-01T06:02:28;18.80;99.90
6758;DHT22;3416;53.074;8.822;2022-08-01T06:04:55;18.80;99.90
6758;DHT22;3416;53.074;8.822;2022-08-01T06:07:22;18.90;99.90
6758;DHT22;3416;53.074;8.822;2022-08-01T06:09:50;18.90;99.90
6758;DHT22;3416;53.074;8.822;2022-08-01T06:12:17;19.10;99.90
6758;DHT22;3416;53.074;8.822;2022-08-01T06:14:44;19.10;99.90
6758;DHT22;3416;53.074;8.822;2022-08-01T06:17:10;19.10;99.90
6758;DHT22;3416;53.074;8.822;2022-08-01T06:19:37;19.10;99.90
6758;DHT22;3416;53.074;8.822;2022-08-01T06:22:04;19.10;99.90
6758;DHT22;3416;53.074;8.822;2022-08-01T06:24:31;19.00;99.90
6758;DHT22;3416;53.074;8.822;2022-08-01T06:27:00;19.10;99.90
6758;DHT22;3416;53.074;8.822;2022-08-01T06:29:27;19.10;99.90
6758;DHT22;3416;53.074;8.822;2022-08-01T06:31:56;19.20;99.90
6758;DHT22;3416;53.074;8.822;2022-08-01T06:34:23;19.10;99.90
6758;DHT22;3416;53.074;8.822;2022-08-01T06:36:51;19.20;99.90
6758;DHT22;3416;53.074;8.822;2022-08-01T06:39:18;19.30;99.90
6758;DHT22;3416;53.074;8.822;2022-08-01T06:41:45;19.30;99.90
6758;DHT22;3416;53.074;8.822;2022-08-01T06:44:14;19.40;99.90
6758;DHT22;3416;53.074;8.822;2022-08-01T06:46:40;19.40;99.90
6758;DHT22;3416;53.074;8.822;2022-08-01T06:49:07;19.40;99.90
6758;DHT22;3416;53.074;8.822;2022-08-01T06:51:34;19.40;99.90
6758;DHT22;3416;53.074;8.822;2022-08-01T06:54:01;19.40;99.90
6758;DHT22;3416;53.074;8.822;2022-08-01T06:56:28;19.30;99.90
6758;DHT22;3416;53.074;8.822;2022-08-01T06:58:55;19.30;99.90
6758;DHT22;3416;53.074;8.822;2022-08-01T07:01:27;19.20;99.90
6758;DHT22;3416;53.074;8.822;2022-08-01T07:03:55;19.20;99.90
6758;DHT22;3416;53.074;8.822;2022-08-01T07:06:23;19.30;99.90
6758;DHT22;3416;53.074;8.822;2022-08-01T07:08:50;19.40;99.90
6758;DHT22;3416;53.074;8.822;2022-08-01T07:11:17;19.50;99.90
6758;DHT22;3416;53.074;8.822;2022-08-01T07:13:44;19.60;99.90
6758;DHT22;3416;53.074;8.822;2022-08-01T07:16:12;19.60;99.90
6758;DHT22;3416;53.074;8.822;2022-08-01T07:18:40;19.70;99.90
6758;DHT22;3416;53.074;8.822;2022-08-01T07:21:07;19.70;99.90
6758;DHT22;3416;53.074;8.822;2022-08-01T07:23:34;19.70;99.90
6758;DHT22;3416;53.074;8.822;2022-08-01T07:26:03;19.80;99.90
6758;DHT22;3416;53.074;8.822;2022-08-01T07:28:30;19.80;99.90
6758;DHT22;3416;53.074;8.822;2022-08-01T07:30:57;19.80;99.90
6758;DHT22;3416;53.074;8.822;2022-08-01T07:33:24;19.80;99.90
6758;DHT22;3416;53.074;8.822;2022-08-01T07:35:52;19.80;99.90
6758;DHT22;3416;53.074;8.822;2022-08-01T07:38:19;19.90;99.90
6758;DHT22;3416;53.074;8.822;2022-08-01T07:40:47;20.00;99.90
6758;DHT22;3416;53.074;8.822;2022-08-01T07:43:14;19.90;99.90
6758;DHT22;3416;53.074;8.822;2022-08-01T07:45:42;19.90;99.90
6758;DHT22;3416;53.074;8.822;2022-08-01T07:48:08;20.00;99.90
6758;DHT22;3416;53.074;8.822;2022-08-01T07:50:35;20.00;99.90
6758;DHT22;3416;53.074;8.822;2022-08-01T07:53:04;20.00;99.90
6758;DHT22;3416;53.074;8.822;2022-08-01T07:55:31;20.00;99.90
6758;DHT22;3416;53.074;8.822;2022-08-01T07:57:57;20.00;99.90
6758;DHT22;3416;53.074;8.822;2022-08-01T08:00:24;20.00;99.90
6758;DHT22;3416;53.074;8.822;2022-08-01T08:02:52;20.10;99.90
6758;DHT22;3416;53.074;8.822;2022-08-01T08:05:20;20.10;99.90
6758;DHT22;3416;53.074;8.822;2022-08-01T08:07:47;20.80;99.90
6758;DHT22;3416;53.074;8.822;2022-08-01T08:10:15;21.20;99.90
6758;DHT22;3416;53.074;8.822;2022-08-01T08:12:42;21.40;99.90
6758;DHT22;3416;53.074;8.822;2022-08-01T08:15:10;21.60;99.90
6758;DHT22;3416;53.074;8.822;2022-08-01T08:17:38;21.50;99.90
6758;DHT22;3416;53.074;8.822;2022-08-01T08:20:07;21.70;99.90
6758;DHT22;3416;53.074;8.822;2022-08-01T08:22:34;22.90;99.90
6758;DHT22;3416;53.074;8.822;2022-08-01T08:25:01;24.50;99.90
6758;DHT22;3416;53.074;8.822;2022-08-01T08:27:30;26.00;99.90
6758;DHT22;3416;53.074;8.822;2022-08-01T08:29:57;27.30;95.70
6758;DHT22;3416;53.074;8.822;2022-08-01T08:32:25;27.70;94.20
6758;DHT22;3416;53.074;8.822;2022-08-01T08:35:03;27.50;93.10
6758;DHT22;3416;53.074;8.822;2022-08-01T08:37:30;26.80;93.60
6758;DHT22;3416;53.074;8.822;2022-08-01T08:39:57;26.20;95.00
6758;DHT22;3416;53.074;8.822;2022-08-01T08:42:24;25.30;95.90
6758;DHT22;3416;53.074;8.822;2022-08-01T08:44:53;24.60;98.30
6758;DHT22;3416;53.074;8.822;2022-08-01T08:47:22;24.30;99.90
6758;DHT22;3416;53.074;8.822;2022-08-01T08:49:53;24.00;99.90
6758;DHT22;3416;53.074;8.822;2022-08-01T08:52:21;23.60;99.90
6758;DHT22;3416;53.074;8.822;2022-08-01T08:54:50;24.20;99.90
6758;DHT22;3416;53.074;8.822;2022-08-01T08:57:19;25.60;98.80
6758;DHT22;3416;53.074;8.822;2022-08-01T08:59:47;27.10;93.90
6758;DHT22;3416;53.074;8.822;2022-08-01T09:02:15;28.30;91.10
6758;DHT22;3416;53.074;8.822;2022-08-01T09:04:42;29.20;88.90
6758;DHT22;3416;53.074;8.822;2022-08-01T09:07:09;28.90;87.40
6758;DHT22;3416;53.074;8.822;2022-08-01T09:09:37;28.70;89.00
6758;DHT22;3416;53.074;8.822;2022-08-01T09:12:04;28.80;87.60
6758;DHT22;3416;53.074;8.822;2022-08-01T09:14:31;28.70;87.00
6758;DHT22;3416;53.074;8.822;2022-08-01T09:17:03;28.80;87.50
6758;DHT22;3416;53.074;8.822;2022-08-01T09:19:38;28.80;87.20
6758;DHT22;3416;53.074;8.822;2022-08-01T09:22:07;28.10;86.30
6758;DHT22;3416;53.074;8.822;2022-08-01T09:24:36;28.10;88.00
6758;DHT22;3416;53.074;8.822;2022-08-01T09:27:16;28.20;88.10
6758;DHT22;3416;53.074;8.822;2022-08-01T09:29:43;28.50;88.20
6758;DHT22;3416;53.074;8.822;2022-08-01T09:32:14;29.00;85.30
6758;DHT22;3416;53.074;8.822;2022-08-01T09:34:42;28.90;85.00
6758;DHT22;3416;53.074;8.822;2022-08-01T09:37:09;28.70;86.70
6758;DHT22;3416;53.074;8.822;2022-08-01T09:39:37;28.80;85.50
6758;DHT22;3416;53.074;8.822;2022-08-01T09:42:22;28.30;85.90
6758;DHT22;3416;53.074;8.822;2022-08-01T09:44:50;28.30;86.10
6758;DHT22;3416;53.074;8.822;2022-08-01T09:47:20;28.60;86.10
6758;DHT22;3416;53.074;8.822;2022-08-01T09:49:54;29.00;82.40
6758;DHT22;3416;53.074;8.822;2022-08-01T09:52:22;29.20;82.00
6758;DHT22;3416;53.074;8.822;2022-08-01T09:54:53;28.90;82.70
6758;DHT22;3416;53.074;8.822;2022-08-01T09:57:20;28.30;83.50
6758;DHT22;3416;53.074;8.822;2022-08-01T09:59:50;28.50;83.30
6758;DHT22;3416;53.074;8.822;2022-08-01T10:02:29;28.80;79.90
6758;DHT22;3416;53.074;8.822;2022-08-01T10:04:58;29.20;79.80
6758;DHT22;3416;53.074;8.822;2022-08-01T10:07:26;29.50;79.80
6758;DHT22;3416;53.074;8.822;2022-08-01T10:09:53;29.70;80.50
6758;DHT22;3416;53.074;8.822;2022-08-01T10:12:21;30.10;78.90
6758;DHT22;3416;53.074;8.822;2022-08-01T10:14:50;30.30;78.50
6758;DHT22;3416;53.074;8.822;2022-08-01T10:17:20;29.90;76.90
6758;DHT22;3416;53.074;8.822;2022-08-01T10:19:51;29.60;75.20
6758;DHT22;3416;53.074;8.822;2022-08-01T10:22:24;29.90;76.20
6758;DHT22;3416;53.074;8.822;2022-08-01T10:24:55;29.80;75.80
6758;DHT22;3416;53.074;8.822;2022-08-01T10:27:23;29.80;77.60
6758;DHT22;3416;53.074;8.822;2022-08-01T10:29:54;29.60;77.00
6758;DHT22;3416;53.074;8.822;2022-08-01T10:32:22;29.70;78.20
6758;DHT22;3416;53.074;8.822;2022-08-01T10:34:49;29.60;75.60
6758;DHT22;3416;53.074;8.822;2022-08-01T10:37:18;29.40;76.30
6758;DHT22;3416;53.074;8.822;2022-08-01T10:39:47;29.30;76.80
6758;DHT22;3416;53.074;8.822;2022-08-01T10:42:14;29.50;77.60
6758;DHT22;3416;53.074;8.822;2022-08-01T10:44:41;29.40;78.00
6758;DHT22;3416;53.074;8.822;2022-08-01T10:47:14;28.90;78.20
6758;DHT22;3416;53.074;8.822;2022-08-01T10:49:43;28.40;79.40
6758;DHT22;3416;53.074;8.822;2022-08-01T10:52:16;28.10;79.80
6758;DHT22;3416;53.074;8.822;2022-08-01T10:54:43;27.80;80.60
6758;DHT22;3416;53.074;8.822;2022-08-01T10:57:12;27.60;82.90
6758;DHT22;3416;53.074;8.822;2022-08-01T10:59:48;27.30;82.00
6758;DHT22;3416;53.074;8.822;2022-08-01T11:02:26;26.90;83.10
6758;DHT22;3416;53.074;8.822;2022-08-01T11:04:55;26.70;84.50
6758;DHT22;3416;53.074;8.822;2022-08-01T11:07:34;26.40;83.90
6758;DHT22;3416;53.074;8.822;2022-08-01T11:10:06;26.30;84.00
6758;DHT22;3416;53.074;8.822;2022-08-01T11:12:40;26.20;84.80
6758;DHT22;3416;53.074;8.822;2022-08-01T11:15:22;26.10;86.40
6758;DHT22;3416;53.074;8.822;2022-08-01T11:17:54;26.10;85.90
6758;DHT22;3416;53.074;8.822;2022-08-01T11:20:23;26.10;85.30
6758;DHT22;3416;53.074;8.822;2022-08-01T11:23:27;26.10;85.90
6758;DHT22;3416;53.074;8.822;2022-08-01T11:26:14;26.40;84.50
6758;DHT22;3416;53.074;8.822;2022-08-01T11:28:46;26.40;85.30
6758;DHT22;3416;53.074;8.822;2022-08-01T11:31:35;26.30;84.50
6758;DHT22;3416;53.074;8.822;2022-08-01T11:34:02;26.10;84.70
6758;DHT22;3416;53.074;8.822;2022-08-01T11:36:29;26.00;86.30
6758;DHT22;3416;53.074;8.822;2022-08-01T11:39:13;26.10;86.60
6758;DHT22;3416;53.074;8.822;2022-08-01T11:41:41;26.30;86.30
6758;DHT22;3416;53.074;8.822;2022-08-01T11:44:11;26.30;84.70
6758;DHT22;3416;53.074;8.822;2022-08-01T11:46:49;26.00;86.20
6758;DHT22;3416;53.074;8.822;2022-08-01T11:49:43;25.80;87.40
6758;DHT22;3416;53.074;8.822;2022-08-01T11:52:12;25.80;86.90
6758;DHT22;3416;53.074;8.822;2022-08-01T11:54:41;26.00;87.00
6758;DHT22;3416;53.074;8.822;2022-08-01T11:57:10;26.00;85.50
6758;DHT22;3416;53.074;8.822;2022-08-01T11:59:40;26.20;87.00
6758;DHT22;3416;53.074;8.822;2022-08-01T12:02:19;26.50;87.10
6758;DHT22;3416;53.074;8.822;2022-08-01T12:04:51;26.60;85.70
6758;DHT22;3416;53.074;8.822;2022-08-01T12:07:19;26.60;84.80
6758;DHT22;3416;53.074;8.822;2022-08-01T12:09:47;26.70;84.30
6758;DHT22;3416;53.074;8.822;2022-08-01T12:12:17;26.50;84.70
6758;DHT22;3416;53.074;8.822;2022-08-01T12:14:52;26.40;84.20
6758;DHT22;3416;53.074;8.822;2022-08-01T12:17:26;26.00;83.30
6758;DHT22;3416;53.074;8.822;2022-08-01T12:19:54;25.60;84.70
6758;DHT22;3416;53.074;8.822;2022-08-01T12:22:23;25.30;85.60
6758;DHT22;3416;53.074;8.822;2022-08-01T12:24:50;25.20;87.10
6758;DHT22;3416;53.074;8.822;2022-08-01T12:27:25;25.30;87.50
6758;DHT22;3416;53.074;8.822;2022-08-01T12:29:56;25.40;86.30
6758;DHT22;3416;53.074;8.822;2022-08-01T12:32:26;25.60;85.80
6758;DHT22;3416;53.074;8.822;2022-08-01T12:34:56;25.60;85.80
6758;DHT22;3416;53.074;8.822;2022-08-01T12:37:24;25.60;86.50
6758;DHT22;3416;53.074;8.822;2022-08-01T12:39:50;25.60;86.00
6758;DHT22;3416;53.074;8.822;2022-08-01T12:42:17;25.60;85.80
6758;DHT22;3416;53.074;8.822;2022-08-01T12:44:46;25.40;86.20
6758;DHT22;3416;53.074;8.822;2022-08-01T12:47:16;25.40;86.60
6758;DHT22;3416;53.074;8.822;2022-08-01T12:49:43;25.30;85.70
6758;DHT22;3416;53.074;8.822;2022-08-01T12:52:11;25.10;86.00
6758;DHT22;3416;53.074;8.822;2022-08-01T12:55:05;25.10;87.30
6758;DHT22;3416;53.074;8.822;2022-08-01T12:57:33;25.30;85.90
6758;DHT22;3416;53.074;8.822;2022-08-01T13:00:22;25.10;86.10
6758;DHT22;3416;53.074;8.822;2022-08-01T13:03:01;25.00;86.90
6758;DHT22;3416;53.074;8.822;2022-08-01T13:05:41;25.00;87.50
6758;DHT22;3416;53.074;8.822;2022-08-01T13:08:10;24.90;86.30
6758;DHT22;3416;53.074;8.822;2022-08-01T13:10:37;24.80;87.90
6758;DHT22;3416;53.074;8.822;2022-08-01T13:13:05;24.80;90.40
6758;DHT22;3416;53.074;8.822;2022-08-01T13:15:34;25.00;88.80
6758;DHT22;3416;53.074;8.822;2022-08-01T13:18:22;25.00;87.80
6758;DHT22;3416;53.074;8.822;2022-08-01T13:20:49;24.90;88.60
6758;DHT22;3416;53.074;8.822;2022-08-01T13:23:18;24.90;89.10
6758;DHT22;3416;53.074;8.822;2022-08-01T13:25:53;24.70;88.00
6758;DHT22;3416;53.074;8.822;2022-08-01T13:28:22;24.80;89.00
6758;DHT22;3416;53.074;8.822;2022-08-01T13:30:58;24.80;88.30
6758;DHT22;3416;53.074;8.822;2022-08-01T13:33:42;24.70;86.80
6758;DHT22;3416;53.074;8.822;2022-08-01T13:36:09;24.70;88.20
6758;DHT22;3416;53.074;8.822;2022-08-01T13:38:38;24.50;88.50
6758;DHT22;3416;53.074;8.822;2022-08-01T13:41:22;24.60;88.70
6758;DHT22;3416;53.074;8.822;2022-08-01T13:43:49;24.70;88.00
6758;DHT22;3416;53.074;8.822;2022-08-01T13:46:16;24.80;88.70
6758;DHT22;3416;53.074;8.822;2022-08-01T13:48:45;24.70;88.90
6758;DHT22;3416;53.074;8.822;2022-08-01T13:51:11;24.80;88.40
6758;DHT22;3416;53.074;8.822;2022-08-01T13:53:39;24.80;89.00
6758;DHT22;3416;53.074;8.822;2022-08-01T13:56:06;24.90;88.90
6758;DHT22;3416;53.074;8.822;2022-08-01T13:58:33;24.80;88.50
6758;DHT22;3416;53.074;8.822;2022-08-01T14:01:00;24.70;88.90
6758;DHT22;3416;53.074;8.822;2022-08-01T14:03:27;24.60;89.90
6758;DHT22;3416;53.074;8.822;2022-08-01T14:05:55;24.60;89.40
6758;DHT22;3416;53.074;8.822;2022-08-01T14:08:22;24.40;89.10
6758;DHT22;3416;53.074;8.822;2022-08-01T14:10:49;24.30;89.60
6758;DHT22;3416;53.074;8.822;2022-08-01T14:13:17;24.30;89.40
6758;DHT22;3416;53.074;8.822;2022-08-01T14:15:44;24.40;89.30
6758;DHT22;3416;53.074;8.822;2022-08-01T14:18:11;24.50;89.30
6758;DHT22;3416;53.074;8.822;2022-08-01T14:20:38;24.50;88.50
6758;DHT22;3416;53.074;8.822;2022-08-01T14:23:07;24.50;88.90
6758;DHT22;3416;53.074;8.822;2022-08-01T14:25:34;24.30;89.00
6758;DHT22;3416;53.074;8.822;2022-08-01T14:28:01;24.20;88.70
6758;DHT22;3416;53.074;8.822;2022-08-01T14:30:28;24.20;89.00
6758;DHT22;3416;53.074;8.822;2022-08-01T14:32:55;24.00;89.60
6758;DHT22;3416;53.074;8.822;2022-08-01T14:35:22;24.00;89.40
6758;DHT22;3416;53.074;8.822;2022-08-01T14:37:49;24.00;89.30
6758;DHT22;3416;53.074;8.822;2022-08-01T14:40:17;24.00;88.90
6758;DHT22;3416;53.074;8.822;2022-08-01T14:42:44;23.80;88.50
6758;DHT22;3416;53.074;8.822;2022-08-01T14:45:12;23.60;90.00
6758;DHT22;3416;53.074;8.822;2022-08-01T14:48:05;23.70;90.40
6758;DHT22;3416;53.074;8.822;2022-08-01T14:50:32;23.80;89.80
6758;DHT22;3416;53.074;8.822;2022-08-01T14:52:59;23.80;88.60
6758;DHT22;3416;53.074;8.822;2022-08-01T14:55:27;23.80;89.80
6758;DHT22;3416;53.074;8.822;2022-08-01T14:57:54;23.80;89.40
6758;DHT22;3416;53.074;8.822;2022-08-01T15:00:21;23.60;88.90
6758;DHT22;3416;53.074;8.822;2022-08-01T15:02:48;23.70;89.40
6758;DHT22;3416;53.074;8.822;2022-08-01T15:05:15;23.70;90.20
6758;DHT22;3416;53.074;8.822;2022-08-01T15:07:42;23.60;90.00
6758;DHT22;3416;53.074;8.822;2022-08-01T15:10:09;23.70;90.00
6758;DHT22;3416;53.074;8.822;2022-08-01T15:12:37;23.60;89.70
6758;DHT22;3416;53.074;8.822;2022-08-01T15:15:05;23.70;89.60
6758;DHT22;3416;53.074;8.822;2022-08-01T15:17:35;23.70;89.40
6758;DHT22;3416;53.074;8.822;2022-08-01T15:20:04;23.80;88.80
6758;DHT22;3416;53.074;8.822;2022-08-01T15:22:32;23.80;88.80
6758;DHT22;3416;53.074;8.822;2022-08-01T15:25:00;23.80;87.90
6758;DHT22;3416;53.074;8.822;2022-08-01T15:27:28;23.70;89.20
6758;DHT22;3416;53.074;8.822;2022-08-01T15:29:57;23.70;89.90
6758;DHT22;3416;53.074;8.822;2022-08-01T15:32:23;23.60;90.40
6758;DHT22;3416;53.074;8.822;2022-08-01T15:34:50;23.60;89.30
6758;DHT22;3416;53.074;8.822;2022-08-01T15:37:18;23.60;88.80
6758;DHT22;3416;53.074;8.822;2022-08-01T15:39:45;23.60;89.20
6758;DHT22;3416;53.074;8.822;2022-08-01T15:42:13;23.60;89.20
6758;DHT22;3416;53.074;8.822;2022-08-01T15:44:41;23.60;89.50
6758;DHT22;3416;53.074;8.822;2022-08-01T15:47:09;23.70;89.40
6758;DHT22;3416;53.074;8.822;2022-08-01T15:49:37;23.70;88.80
6758;DHT22;3416;53.074;8.822;2022-08-01T15:52:05;23.60;89.20
6758;DHT22;3416;53.074;8.822;2022-08-01T15:54:33;23.50;89.90
6758;DHT22;3416;53.074;8.822;2022-08-01T15:57:00;23.40;90.00
6758;DHT22;3416;53.074;8.822;2022-08-01T15:59:27;23.30;89.80
6758;DHT22;3416;53.074;8.822;2022-08-01T16:01:54;23.20;90.00
6758;DHT22;3416;53.074;8.822;2022-08-01T16:04:22;23.10;90.20
6758;DHT22;3416;53.074;8.822;2022-08-01T16:06:49;23.00;90.60
6758;DHT22;3416;53.074;8.822;2022-08-01T16:09:16;23.00;90.00
6758;DHT22;3416;53.074;8.822;2022-08-01T16:11:44;23.10;89.20
6758;DHT22;3416;53.074;8.822;2022-08-01T16:14:11;23.10;89.60
6758;DHT22;3416;53.074;8.822;2022-08-01T16:16:38;23.20;89.70
6758;DHT22;3416;53.074;8.822;2022-08-01T16:19:05;23.30;89.30